sensor_id;sensor_type;location;lat;lon;timestamp;temperature;humidity
75321;DHT22;68337;52.196;5.660;2023-06-10T00:02:07;19.90;88.10
75321;DHT22;68337;52.196;5.660;2023-06-10T00:04:33;19.90;87.20
75321;DHT22;68337;52.196;5.660;2023-06-10T00:06:59;19.90;85.70
75321;DHT22;68337;52.196;5.660;2023-06-10T00:09:25;19.90;85.80
75321;DHT22;68337;52.196;5.660;2023-06-10T00:11:52;19.90;85.20
75321;DHT22;68337;52.196;5.660;2023-06-10T00:14:18;19.90;84.70
75321;DHT22;68337;52.196;5.660;2023-06-10T00:16:44;19.80;85.10
75321;DHT22;68337;52.196;5.660;2023-06-10T00:19:10;19.80;84.80
75321;DHT22;68337;52.196;5.660;2023-06-10T00:21:39;19.80;84.60
75321;DHT22;68337;52.196;5.660;2023-06-10T00:24:10;19.80;84.40
75321;DHT22;68337;52.196;5.660;2023-06-10T00:26:41;19.70;84.40
75321;DHT22;68337;52.196;5.660;2023-06-10T00:29:07;19.70;84.80
75321;DHT22;68337;52.196;5.660;2023-06-10T00:31:34;19.70;84.70
75321;DHT22;68337;52.196;5.660;2023-06-10T00:34:01;19.60;84.80
75321;DHT22;68337;52.196;5.660;2023-06-10T00:36:28;19.50;85.10
75321;DHT22;68337;52.196;5.660;2023-06-10T00:38:54;19.50;85.00
75321;DHT22;68337;52.196;5.660;2023-06-10T00:41:20;19.60;84.40
75321;DHT22;68337;52.196;5.660;2023-06-10T00:43:46;19.60;84.70
75321;DHT22;68337;52.196;5.660;2023-06-10T00:46:12;19.60;84.90
75321;DHT22;68337;52.196;5.660;2023-06-10T00:48:42;19.60;84.90
75321;DHT22;68337;52.196;5.660;2023-06-10T00:51:09;19.60;85.00
75321;DHT22;68337;52.196;5.660;2023-06-10T00:53:39;19.50;85.50
75321;DHT22;68337;52.196;5.660;2023-06-10T00:56:06;19.50;85.70
75321;DHT22;68337;52.196;5.660;2023-06-10T00:58:32;19.50;85.90
75321;DHT22;68337;52.196;5.660;2023-06-10T01:00:58;19.40;86.20
75321;DHT22;68337;52.196;5.660;2023-06-10T01:03:24;19.40;86.60
75321;DHT22;68337;52.196;5.660;2023-06-10T01:09:22;19.50;87.10
75321;DHT22;68337;52.196;5.660;2023-06-10T01:15:15;19.30;88.40
75321;DHT22;68337;52.196;5.660;2023-06-10T01:17:55;19.30;89.00
75321;DHT22;68337;52.196;5.660;2023-06-10T01:20:23;19.30;89.40
75321;DHT22;68337;52.196;5.660;2023-06-10T01:22:49;19.20;90.00
75321;DHT22;68337;52.196;5.660;2023-06-10T01:25:17;19.20;90.30
75321;DHT22;68337;52.196;5.660;2023-06-10T01:27:47;19.20;90.50
75321;DHT22;68337;52.196;5.660;2023-06-10T01:30:16;19.10;90.70
75321;DHT22;68337;52.196;5.660;2023-06-10T01:32:46;19.10;91.00
75321;DHT22;68337;52.196;5.660;2023-06-10T01:35:14;19.00;91.40
75321;DHT22;68337;52.196;5.660;2023-06-10T01:37:43;19.00;91.70
75321;DHT22;68337;52.196;5.660;2023-06-10T01:40:12;18.90;92.00
75321;DHT22;68337;52.196;5.660;2023-06-10T01:42:38;18.90;92.20
75321;DHT22;68337;52.196;5.660;2023-06-10T01:45:04;18.90;92.40
75321;DHT22;68337;52.196;5.660;2023-06-10T01:47:30;18.90;92.60
75321;DHT22;68337;52.196;5.660;2023-06-10T01:49:55;18.80;92.90
75321;DHT22;68337;52.196;5.660;2023-06-10T01:52:21;18.80;93.10
75321;DHT22;68337;52.196;5.660;2023-06-10T01:54:47;18.80;93.40
75321;DHT22;68337;52.196;5.660;2023-06-10T01:57:13;18.70;94.00
75321;DHT22;68337;52.196;5.660;2023-06-10T01:59:38;18.70;94.30
75321;DHT22;68337;52.196;5.660;2023-06-10T02:02:05;18.60;94.70
75321;DHT22;68337;52.196;5.660;2023-06-10T02:04:31;18.60;95.10
75321;DHT22;68337;52.196;5.660;2023-06-10T02:06:56;18.60;95.40
75321;DHT22;68337;52.196;5.660;2023-06-10T02:09:22;18.50;96.00
75321;DHT22;68337;52.196;5.660;2023-06-10T02:11:48;18.50;96.40
75321;DHT22;68337;52.196;5.660;2023-06-10T02:14:14;18.40;96.70
75321;DHT22;68337;52.196;5.660;2023-06-10T02:16:40;18.40;97.50
75321;DHT22;68337;52.196;5.660;2023-06-10T02:19:07;18.40;98.00
75321;DHT22;68337;52.196;5.660;2023-06-10T02:21:33;18.30;98.30
75321;DHT22;68337;52.196;5.660;2023-06-10T02:24:00;18.30;98.60
75321;DHT22;68337;52.196;5.660;2023-06-10T02:26:26;18.30;99.10
75321;DHT22;68337;52.196;5.660;2023-06-10T02:28:52;18.20;99.80
75321;DHT22;68337;52.196;5.660;2023-06-10T02:31:18;18.30;99.70
75321;DHT22;68337;52.196;5.660;2023-06-10T02:33:44;18.20;99.90
75321;DHT22;68337;52.196;5.660;2023-06-10T02:36:10;18.20;99.90
75321;DHT22;68337;52.196;5.660;2023-06-10T02:38:42;18.20;99.90
75321;DHT22;68337;52.196;5.660;2023-06-10T02:41:08;18.20;99.90
75321;DHT22;68337;52.196;5.660;2023-06-10T02:43:33;18.20;99.90
75321;DHT22;68337;52.196;5.660;2023-06-10T02:45:59;18.10;99.90
75321;DHT22;68337;52.196;5.660;2023-06-10T02:48:25;18.10;99.90
75321;DHT22;68337;52.196;5.660;2023-06-10T02:50:52;18.00;99.90
75321;DHT22;68337;52.196;5.660;2023-06-10T02:53:17;18.00;99.90
75321;DHT22;68337;52.196;5.660;2023-06-10T02:55:43;17.90;99.90
75321;DHT22;68337;52.196;5.660;2023-06-10T02:58:09;17.80;99.90
75321;DHT22;68337;52.196;5.660;2023-06-10T03:00:35;17.80;99.90
75321;DHT22;68337;52.196;5.660;2023-06-10T03:03:02;17.80;99.90
75321;DHT22;68337;52.196;5.660;2023-06-10T03:05:31;17.80;99.90
75321;DHT22;68337;52.196;5.660;2023-06-10T03:07:56;17.70;99.90
75321;DHT22;68337;52.196;5.660;2023-06-10T03:10:22;17.60;99.90
75321;DHT22;68337;52.196;5.660;2023-06-10T03:12:48;17.60;99.90
75321;DHT22;68337;52.196;5.660;2023-06-10T03:15:14;17.60;99.90
75321;DHT22;68337;52.196;5.660;2023-06-10T03:17:41;17.50;99.90
75321;DHT22;68337;52.196;5.660;2023-06-10T03:20:07;17.50;99.90
75321;DHT22;68337;52.196;5.660;2023-06-10T03:22:35;17.50;99.90
75321;DHT22;68337;52.196;5.660;2023-06-10T03:25:01;17.50;99.90
75321;DHT22;68337;52.196;5.660;2023-06-10T03:27:27;17.40;99.90
75321;DHT22;68337;52.196;5.660;2023-06-10T03:29:54;17.40;99.90
75321;DHT22;68337;52.196;5.660;2023-06-10T03:32:20;17.40;99.90
75321;DHT22;68337;52.196;5.660;2023-06-10T03:34:46;17.40;99.90
75321;DHT22;68337;52.196;5.660;2023-06-10T03:37:13;17.30;99.90
75321;DHT22;68337;52.196;5.660;2023-06-10T03:39:39;17.30;99.90
75321;DHT22;68337;52.196;5.660;2023-06-10T03:42:05;17.30;99.90
75321;DHT22;68337;52.196;5.660;2023-06-10T03:44:30;17.30;99.90
75321;DHT22;68337;52.196;5.660;2023-06-10T03:46:56;17.20;99.90
75321;DHT22;68337;52.196;5.660;2023-06-10T03:49:23;17.20;99.90
75321;DHT22;68337;52.196;5.660;2023-06-10T03:51:51;17.20;99.90
75321;DHT22;68337;52.196;5.660;2023-06-10T03:54:16;17.20;99.90
75321;DHT22;68337;52.196;5.660;2023-06-10T03:56:42;17.20;99.90
75321;DHT22;68337;52.196;5.660;2023-06-10T03:59:08;17.20;99.90
75321;DHT22;68337;52.196;5.660;2023-06-10T04:01:33;17.20;99.90
75321;DHT22;68337;52.196;5.660;2023-06-10T04:04:00;17.20;99.90
75321;DHT22;68337;52.196;5.660;2023-06-10T04:06:26;17.20;99.90
75321;DHT22;68337;52.196;5.660;2023-06-10T04:08:54;17.20;99.90
75321;DHT22;68337;52.196;5.660;2023-06-10T04:11:23;17.20;99.90
75321;DHT22;68337;52.196;5.660;2023-06-10T04:13:49;17.30;99.90
75321;DHT22;68337;52.196;5.660;2023-06-10T04:16:15;17.30;99.90
75321;DHT22;68337;52.196;5.660;2023-06-10T04:18:41;17.30;99.90
75321;DHT22;68337;52.196;5.660;2023-06-10T04:21:09;17.30;99.90
75321;DHT22;68337;52.196;5.660;2023-06-10T04:23:36;17.30;99.90
75321;DHT22;68337;52.196;5.660;2023-06-10T04:26:04;17.40;99.90
75321;DHT22;68337;52.196;5.660;2023-06-10T04:28:31;17.40;99.90
75321;DHT22;68337;52.196;5.660;2023-06-10T04:30:57;17.30;99.90
75321;DHT22;68337;52.196;5.660;2023-06-10T04:33:23;17.40;99.90
75321;DHT22;68337;52.196;5.660;2023-06-10T04:35:50;17.40;99.90
75321;DHT22;68337;52.196;5.660;2023-06-10T04:38:16;17.50;99.90
75321;DHT22;68337;52.196;5.660;2023-06-10T04:40:41;17.60;99.90
75321;DHT22;68337;52.196;5.660;2023-06-10T04:43:07;17.60;99.90
75321;DHT22;68337;52.196;5.660;2023-06-10T04:45:33;17.70;99.90
75321;DHT22;68337;52.196;5.660;2023-06-10T04:47:59;17.70;99.90
75321;DHT22;68337;52.196;5.660;2023-06-10T04:50:24;17.80;99.90
75321;DHT22;68337;52.196;5.660;2023-06-10T04:52:50;17.90;99.90
75321;DHT22;68337;52.196;5.660;2023-06-10T04:55:16;18.00;99.90
75321;DHT22;68337;52.196;5.660;2023-06-10T04:57:41;18.10;99.90
75321;DHT22;68337;52.196;5.660;2023-06-10T05:00:08;18.30;99.90
75321;DHT22;68337;52.196;5.660;2023-06-10T05:02:34;18.40;99.90
75321;DHT22;68337;52.196;5.660;2023-06-10T05:05:00;18.60;99.90
75321;DHT22;68337;52.196;5.660;2023-06-10T05:07:26;18.70;99.90
75321;DHT22;68337;52.196;5.660;2023-06-10T05:09:51;18.90;99.90
75321;DHT22;68337;52.196;5.660;2023-06-10T05:12:17;18.90;99.90
75321;DHT22;68337;52.196;5.660;2023-06-10T05:14:43;19.10;99.90
75321;DHT22;68337;52.196;5.660;2023-06-10T05:17:10;19.20;99.90
75321;DHT22;68337;52.196;5.660;2023-06-10T05:19:35;19.30;99.90
75321;DHT22;68337;52.196;5.660;2023-06-10T05:22:03;19.40;99.90
75321;DHT22;68337;52.196;5.660;2023-06-10T05:24:28;19.50;99.90
75321;DHT22;68337;52.196;5.660;2023-06-10T05:26:54;19.70;99.90
75321;DHT22;68337;52.196;5.660;2023-06-10T05:29:20;19.80;99.90
75321;DHT22;68337;52.196;5.660;2023-06-10T05:31:45;20.00;99.90
75321;DHT22;68337;52.196;5.660;2023-06-10T05:34:11;20.00;99.90
75321;DHT22;68337;52.196;5.660;2023-06-10T05:36:37;20.10;99.90
75321;DHT22;68337;52.196;5.660;2023-06-10T05:39:03;20.30;99.90
75321;DHT22;68337;52.196;5.660;2023-06-10T05:41:29;20.40;99.90
75321;DHT22;68337;52.196;5.660;2023-06-10T05:43:55;20.60;99.90
75321;DHT22;68337;52.196;5.660;2023-06-10T05:46:20;20.70;99.90
75321;DHT22;68337;52.196;5.660;2023-06-10T05:48:46;20.70;99.90
75321;DHT22;68337;52.196;5.660;2023-06-10T05:51:12;20.90;99.90
75321;DHT22;68337;52.196;5.660;2023-06-10T05:53:37;21.00;99.90
75321;DHT22;68337;52.196;5.660;2023-06-10T05:56:04;21.00;99.90
75321;DHT22;68337;52.196;5.660;2023-06-10T05:58:29;21.10;99.90
75321;DHT22;68337;52.196;5.660;2023-06-10T06:00:55;21.20;99.90
75321;DHT22;68337;52.196;5.660;2023-06-10T06:03:21;21.30;99.90
75321;DHT22;68337;52.196;5.660;2023-06-10T06:05:47;21.40;99.90
75321;DHT22;68337;52.196;5.660;2023-06-10T06:08:12;21.40;99.90
75321;DHT22;68337;52.196;5.660;2023-06-10T06:10:45;21.50;99.90
75321;DHT22;68337;52.196;5.660;2023-06-10T06:13:10;21.60;99.90
75321;DHT22;68337;52.196;5.660;2023-06-10T06:15:36;21.70;99.90
75321;DHT22;68337;52.196;5.660;2023-06-10T06:18:02;21.80;99.90
75321;DHT22;68337;52.196;5.660;2023-06-10T06:20:27;21.90;99.90
75321;DHT22;68337;52.196;5.660;2023-06-10T06:22:53;22.10;99.90
75321;DHT22;68337;52.196;5.660;2023-06-10T06:25:19;22.10;99.90
75321;DHT22;68337;52.196;5.660;2023-06-10T06:27:45;22.30;99.90
75321;DHT22;68337;52.196;5.660;2023-06-10T06:30:11;22.40;99.90
75321;DHT22;68337;52.196;5.660;2023-06-10T06:32:37;22.60;99.90
75321;DHT22;68337;52.196;5.660;2023-06-10T06:35:03;22.80;99.90
75321;DHT22;68337;52.196;5.660;2023-06-10T06:37:31;23.00;99.90
75321;DHT22;68337;52.196;5.660;2023-06-10T06:39:58;23.10;99.90
75321;DHT22;68337;52.196;5.660;2023-06-10T06:42:24;23.20;99.90
75321;DHT22;68337;52.196;5.660;2023-06-10T06:44:50;23.20;99.90
75321;DHT22;68337;52.196;5.660;2023-06-10T06:47:15;23.30;99.90
75321;DHT22;68337;52.196;5.660;2023-06-10T06:49:48;23.40;99.90
75321;DHT22;68337;52.196;5.660;2023-06-10T06:52:15;23.70;99.90
75321;DHT22;68337;52.196;5.660;2023-06-10T06:54:40;24.00;99.50
75321;DHT22;68337;52.196;5.660;2023-06-10T06:57:06;24.00;99.10
75321;DHT22;68337;52.196;5.660;2023-06-10T06:59:33;24.10;99.10
75321;DHT22;68337;52.196;5.660;2023-06-10T07:01:58;24.40;98.60
75321;DHT22;68337;52.196;5.660;2023-06-10T07:04:24;24.40;98.10
75321;DHT22;68337;52.196;5.660;2023-06-10T07:06:50;24.50;98.50
75321;DHT22;68337;52.196;5.660;2023-06-10T07:09:16;24.70;97.00
75321;DHT22;68337;52.196;5.660;2023-06-10T07:11:41;24.90;96.80
75321;DHT22;68337;52.196;5.660;2023-06-10T07:14:07;25.10;96.80
75321;DHT22;68337;52.196;5.660;2023-06-10T07:16:33;25.20;96.30
75321;DHT22;68337;52.196;5.660;2023-06-10T07:18:59;25.60;96.00
75321;DHT22;68337;52.196;5.660;2023-06-10T07:21:25;25.70;95.30
75321;DHT22;68337;52.196;5.660;2023-06-10T07:23:51;25.70;94.70
75321;DHT22;68337;52.196;5.660;2023-06-10T07:26:21;25.80;94.40
75321;DHT22;68337;52.196;5.660;2023-06-10T07:28:47;25.70;94.10
75321;DHT22;68337;52.196;5.660;2023-06-10T07:31:13;25.80;93.20
75321;DHT22;68337;52.196;5.660;2023-06-10T07:33:38;26.00;93.20
75321;DHT22;68337;52.196;5.660;2023-06-10T07:36:05;26.20;92.40
75321;DHT22;68337;52.196;5.660;2023-06-10T07:38:31;26.30;92.40
75321;DHT22;68337;52.196;5.660;2023-06-10T07:40:57;26.60;92.10
75321;DHT22;68337;52.196;5.660;2023-06-10T07:43:23;26.40;92.30
75321;DHT22;68337;52.196;5.660;2023-06-10T07:45:50;26.80;92.00
75321;DHT22;68337;52.196;5.660;2023-06-10T07:48:15;26.90;91.10
75321;DHT22;68337;52.196;5.660;2023-06-10T07:50:41;27.00;90.40
75321;DHT22;68337;52.196;5.660;2023-06-10T07:53:07;27.00;90.30
75321;DHT22;68337;52.196;5.660;2023-06-10T07:55:33;27.10;90.90
75321;DHT22;68337;52.196;5.660;2023-06-10T07:57:59;27.10;90.40
75321;DHT22;68337;52.196;5.660;2023-06-10T08:00:24;27.20;90.30
75321;DHT22;68337;52.196;5.660;2023-06-10T08:02:50;27.60;89.20
75321;DHT22;68337;52.196;5.660;2023-06-10T08:05:16;27.60;87.30
75321;DHT22;68337;52.196;5.660;2023-06-10T08:07:42;27.60;86.70
75321;DHT22;68337;52.196;5.660;2023-06-10T08:10:08;27.60;83.90
75321;DHT22;68337;52.196;5.660;2023-06-10T08:12:34;28.10;84.40
75321;DHT22;68337;52.196;5.660;2023-06-10T08:15:01;28.10;85.40
75321;DHT22;68337;52.196;5.660;2023-06-10T08:17:27;28.50;85.00
75321;DHT22;68337;52.196;5.660;2023-06-10T08:19:53;28.60;82.10
75321;DHT22;68337;52.196;5.660;2023-06-10T08:22:18;28.60;82.80
75321;DHT22;68337;52.196;5.660;2023-06-10T08:24:44;28.80;80.90
75321;DHT22;68337;52.196;5.660;2023-06-10T08:27:10;28.80;79.20
75321;DHT22;68337;52.196;5.660;2023-06-10T08:29:36;29.20;78.70
75321;DHT22;68337;52.196;5.660;2023-06-10T08:32:02;29.70;77.90
75321;DHT22;68337;52.196;5.660;2023-06-10T08:34:28;29.90;74.80
75321;DHT22;68337;52.196;5.660;2023-06-10T08:36:54;29.90;74.90
75321;DHT22;68337;52.196;5.660;2023-06-10T08:39:21;30.00;72.30
75321;DHT22;68337;52.196;5.660;2023-06-10T08:42:11;30.20;73.20
75321;DHT22;68337;52.196;5.660;2023-06-10T08:44:37;30.70;73.60
75321;DHT22;68337;52.196;5.660;2023-06-10T08:47:16;30.70;72.10
75321;DHT22;68337;52.196;5.660;2023-06-10T08:49:46;30.80;71.40
75321;DHT22;68337;52.196;5.660;2023-06-10T08:52:17;31.00;69.30
75321;DHT22;68337;52.196;5.660;2023-06-10T08:54:47;31.20;68.80
75321;DHT22;68337;52.196;5.660;2023-06-10T08:57:18;31.60;67.40
75321;DHT22;68337;52.196;5.660;2023-06-10T08:59:47;31.70;64.90
75321;DHT22;68337;52.196;5.660;2023-06-10T09:02:15;31.70;64.80
75321;DHT22;68337;52.196;5.660;2023-06-10T09:04:46;31.80;64.20
75321;DHT22;68337;52.196;5.660;2023-06-10T09:07:13;31.70;63.50
75321;DHT22;68337;52.196;5.660;2023-06-10T09:09:42;31.70;63.10
75321;DHT22;68337;52.196;5.660;2023-06-10T09:12:09;31.60;62.80
75321;DHT22;68337;52.196;5.660;2023-06-10T09:14:35;31.60;64.10
75321;DHT22;68337;52.196;5.660;2023-06-10T09:17:02;31.80;62.70
75321;DHT22;68337;52.196;5.660;2023-06-10T09:19:28;31.30;60.50
75321;DHT22;68337;52.196;5.660;2023-06-10T09:21:54;31.30;61.00
75321;DHT22;68337;52.196;5.660;2023-06-10T09:24:22;32.00;60.60
75321;DHT22;68337;52.196;5.660;2023-06-10T09:26:48;32.10;60.40
75321;DHT22;68337;52.196;5.660;2023-06-10T09:29:14;32.10;58.60
75321;DHT22;68337;52.196;5.660;2023-06-10T09:31:41;31.50;58.40
75321;DHT22;68337;52.196;5.660;2023-06-10T09:36:33;31.70;58.10
75321;DHT22;68337;52.196;5.660;2023-06-10T09:39:00;32.30;58.00
75321;DHT22;68337;52.196;5.660;2023-06-10T09:41:35;32.30;57.00
75321;DHT22;68337;52.196;5.660;2023-06-10T09:44:12;32.30;57.40
75321;DHT22;68337;52.196;5.660;2023-06-10T09:46:38;32.30;56.80
75321;DHT22;68337;52.196;5.660;2023-06-10T09:49:04;32.20;56.20
75321;DHT22;68337;52.196;5.660;2023-06-10T09:51:30;32.60;55.40
75321;DHT22;68337;52.196;5.660;2023-06-10T09:53:55;32.60;54.20
75321;DHT22;68337;52.196;5.660;2023-06-10T09:56:21;32.80;54.50
75321;DHT22;68337;52.196;5.660;2023-06-10T09:58:57;32.90;53.60
75321;DHT22;68337;52.196;5.660;2023-06-10T10:01:23;33.30;52.00
75321;DHT22;68337;52.196;5.660;2023-06-10T10:03:50;33.60;53.20
75321;DHT22;68337;52.196;5.660;2023-06-10T10:06:18;33.70;50.80
75321;DHT22;68337;52.196;5.660;2023-06-10T10:08:47;33.90;49.90
75321;DHT22;68337;52.196;5.660;2023-06-10T10:11:16;34.10;49.40
75321;DHT22;68337;52.196;5.660;2023-06-10T10:13:42;33.80;49.10
75321;DHT22;68337;52.196;5.660;2023-06-10T10:16:13;33.70;49.30
75321;DHT22;68337;52.196;5.660;2023-06-10T10:18:43;33.30;47.90
75321;DHT22;68337;52.196;5.660;2023-06-10T10:21:13;33.60;46.30
75321;DHT22;68337;52.196;5.660;2023-06-10T10:23:48;33.40;47.10
75321;DHT22;68337;52.196;5.660;2023-06-10T10:26:18;34.10;47.50
75321;DHT22;68337;52.196;5.660;2023-06-10T10:29:03;33.90;47.50
75321;DHT22;68337;52.196;5.660;2023-06-10T10:31:33;34.30;46.80
75321;DHT22;68337;52.196;5.660;2023-06-10T10:34:03;33.70;45.70
75321;DHT22;68337;52.196;5.660;2023-06-10T10:36:30;34.10;46.20
75321;DHT22;68337;52.196;5.660;2023-06-10T10:38:57;34.90;45.30
75321;DHT22;68337;52.196;5.660;2023-06-10T10:41:26;34.50;45.60
75321;DHT22;68337;52.196;5.660;2023-06-10T10:43:53;34.30;46.20
75321;DHT22;68337;52.196;5.660;2023-06-10T10:46:19;34.60;45.20
75321;DHT22;68337;52.196;5.660;2023-06-10T10:48:47;35.10;44.70
75321;DHT22;68337;52.196;5.660;2023-06-10T10:51:17;34.40;44.60
75321;DHT22;68337;52.196;5.660;2023-06-10T10:53:43;34.20;44.70
75321;DHT22;68337;52.196;5.660;2023-06-10T10:56:15;33.70;43.70
75321;DHT22;68337;52.196;5.660;2023-06-10T10:58:41;33.80;43.70
75321;DHT22;68337;52.196;5.660;2023-06-10T11:01:14;34.50;43.00
75321;DHT22;68337;52.196;5.660;2023-06-10T11:03:46;34.60;42.10
75321;DHT22;68337;52.196;5.660;2023-06-10T11:06:16;35.00;41.00
75321;DHT22;68337;52.196;5.660;2023-06-10T11:11:27;35.30;41.30
75321;DHT22;68337;52.196;5.660;2023-06-10T11:16:30;35.10;41.20
75321;DHT22;68337;52.196;5.660;2023-06-10T11:19:03;35.10;39.70
75321;DHT22;68337;52.196;5.660;2023-06-10T11:21:28;35.60;40.50
75321;DHT22;68337;52.196;5.660;2023-06-10T11:23:58;35.70;39.40
75321;DHT22;68337;52.196;5.660;2023-06-10T11:31:20;35.00;39.60
75321;DHT22;68337;52.196;5.660;2023-06-10T11:33:54;34.40;40.70
75321;DHT22;68337;52.196;5.660;2023-06-10T11:36:22;34.80;41.00
75321;DHT22;68337;52.196;5.660;2023-06-10T11:38:48;35.40;39.90
75321;DHT22;68337;52.196;5.660;2023-06-10T11:41:14;35.70;39.80
75321;DHT22;68337;52.196;5.660;2023-06-10T11:43:44;36.10;40.40
75321;DHT22;68337;52.196;5.660;2023-06-10T11:46:14;36.10;39.70
75321;DHT22;68337;52.196;5.660;2023-06-10T11:48:49;36.20;39.00
75321;DHT22;68337;52.196;5.660;2023-06-10T11:51:15;36.40;36.70
75321;DHT22;68337;52.196;5.660;2023-06-10T11:53:44;36.30;37.20
75321;DHT22;68337;52.196;5.660;2023-06-10T11:56:10;36.40;37.40
75321;DHT22;68337;52.196;5.660;2023-06-10T11:58:36;36.50;37.80
75321;DHT22;68337;52.196;5.660;2023-06-10T12:01:02;36.20;37.60
75321;DHT22;68337;52.196;5.660;2023-06-10T12:03:36;35.90;38.50
75321;DHT22;68337;52.196;5.660;2023-06-10T12:06:05;36.10;38.40
75321;DHT22;68337;52.196;5.660;2023-06-10T12:08:31;36.50;37.70
75321;DHT22;68337;52.196;5.660;2023-06-10T12:10:57;36.40;37.60
75321;DHT22;68337;52.196;5.660;2023-06-10T12:13:25;36.50;37.70
75321;DHT22;68337;52.196;5.660;2023-06-10T12:15:51;36.90;37.30
75321;DHT22;68337;52.196;5.660;2023-06-10T12:18:18;36.80;36.10
75321;DHT22;68337;52.196;5.660;2023-06-10T12:20:44;36.20;35.80
75321;DHT22;68337;52.196;5.660;2023-06-10T12:23:11;36.40;36.70
75321;DHT22;68337;52.196;5.660;2023-06-10T12:25:37;36.60;36.30
75321;DHT22;68337;52.196;5.660;2023-06-10T12:28:04;36.80;35.80
75321;DHT22;68337;52.196;5.660;2023-06-10T12:30:31;36.00;36.60
75321;DHT22;68337;52.196;5.660;2023-06-10T12:32:57;36.30;36.20
75321;DHT22;68337;52.196;5.660;2023-06-10T12:35:24;36.30;36.10
75321;DHT22;68337;52.196;5.660;2023-06-10T12:38:01;36.30;36.30
75321;DHT22;68337;52.196;5.660;2023-06-10T12:40:31;36.20;35.50
75321;DHT22;68337;52.196;5.660;2023-06-10T12:42:57;36.10;35.40
75321;DHT22;68337;52.196;5.660;2023-06-10T12:45:32;36.30;35.60
75321;DHT22;68337;52.196;5.660;2023-06-10T12:48:09;37.00;34.70
75321;DHT22;68337;52.196;5.660;2023-06-10T12:50:36;37.00;34.90
75321;DHT22;68337;52.196;5.660;2023-06-10T12:53:05;36.70;34.90
75321;DHT22;68337;52.196;5.660;2023-06-10T12:55:31;35.90;34.30
75321;DHT22;68337;52.196;5.660;2023-06-10T12:57:58;36.30;35.30
75321;DHT22;68337;52.196;5.660;2023-06-10T13:00:24;36.70;34.40
75321;DHT22;68337;52.196;5.660;2023-06-10T13:03:02;37.10;34.40
75321;DHT22;68337;52.196;5.660;2023-06-10T13:05:29;37.30;34.80
75321;DHT22;68337;52.196;5.660;2023-06-10T13:07:55;37.40;34.60
75321;DHT22;68337;52.196;5.660;2023-06-10T13:10:21;37.00;34.20
75321;DHT22;68337;52.196;5.660;2023-06-10T13:12:47;36.80;35.20
75321;DHT22;68337;52.196;5.660;2023-06-10T13:15:13;36.70;34.80
75321;DHT22;68337;52.196;5.660;2023-06-10T13:17:40;37.00;34.00
75321;DHT22;68337;52.196;5.660;2023-06-10T13:20:07;37.10;34.40
75321;DHT22;68337;52.196;5.660;2023-06-10T13:22:33;37.30;33.70
75321;DHT22;68337;52.196;5.660;2023-06-10T13:25:04;37.20;33.30
75321;DHT22;68337;52.196;5.660;2023-06-10T13:27:30;36.90;33.70
75321;DHT22;68337;52.196;5.660;2023-06-10T13:29:58;37.30;34.40
75321;DHT22;68337;52.196;5.660;2023-06-10T13:32:23;37.50;33.60
75321;DHT22;68337;52.196;5.660;2023-06-10T13:34:49;37.30;33.00
75321;DHT22;68337;52.196;5.660;2023-06-10T13:37:15;36.90;33.80
75321;DHT22;68337;52.196;5.660;2023-06-10T13:39:44;36.60;35.00
75321;DHT22;68337;52.196;5.660;2023-06-10T13:42:12;36.20;34.90
75321;DHT22;68337;52.196;5.660;2023-06-10T13:44:38;35.90;35.30
75321;DHT22;68337;52.196;5.660;2023-06-10T13:47:04;36.20;35.10
75321;DHT22;68337;52.196;5.660;2023-06-10T13:49:30;36.20;33.70
75321;DHT22;68337;52.196;5.660;2023-06-10T13:51:56;35.70;34.50
75321;DHT22;68337;52.196;5.660;2023-06-10T13:54:22;35.50;34.30
75321;DHT22;68337;52.196;5.660;2023-06-10T13:56:48;35.70;34.30
75321;DHT22;68337;52.196;5.660;2023-06-10T13:59:18;35.50;33.60
75321;DHT22;68337;52.196;5.660;2023-06-10T14:01:44;35.50;34.00
75321;DHT22;68337;52.196;5.660;2023-06-10T14:04:10;35.30;33.90
75321;DHT22;68337;52.196;5.660;2023-06-10T14:06:36;35.70;34.10
75321;DHT22;68337;52.196;5.660;2023-06-10T14:09:01;36.20;35.20
75321;DHT22;68337;52.196;5.660;2023-06-10T14:11:27;36.60;34.10
75321;DHT22;68337;52.196;5.660;2023-06-10T14:13:53;36.50;34.10
75321;DHT22;68337;52.196;5.660;2023-06-10T14:16:22;36.40;33.70
75321;DHT22;68337;52.196;5.660;2023-06-10T14:18:47;36.20;33.00
75321;DHT22;68337;52.196;5.660;2023-06-10T14:21:13;36.10;32.20
75321;DHT22;68337;52.196;5.660;2023-06-10T14:23:39;36.10;31.90
75321;DHT22;68337;52.196;5.660;2023-06-10T14:26:04;36.00;32.80
75321;DHT22;68337;52.196;5.660;2023-06-10T14:28:32;36.30;32.80
75321;DHT22;68337;52.196;5.660;2023-06-10T14:30:58;36.50;33.20
75321;DHT22;68337;52.196;5.660;2023-06-10T14:33:24;36.00;33.80
75321;DHT22;68337;52.196;5.660;2023-06-10T14:35:49;35.80;34.20
75321;DHT22;68337;52.196;5.660;2023-06-10T14:38:15;36.20;34.80
75321;DHT22;68337;52.196;5.660;2023-06-10T14:40:41;36.00;34.50
75321;DHT22;68337;52.196;5.660;2023-06-10T14:43:06;35.40;33.20
75321;DHT22;68337;52.196;5.660;2023-06-10T14:45:41;35.70;33.60
75321;DHT22;68337;52.196;5.660;2023-06-10T14:48:08;35.70;33.00
75321;DHT22;68337;52.196;5.660;2023-06-10T14:50:37;35.60;32.80
75321;DHT22;68337;52.196;5.660;2023-06-10T14:53:03;35.70;33.20
75321;DHT22;68337;52.196;5.660;2023-06-10T14:55:29;35.90;34.20
75321;DHT22;68337;52.196;5.660;2023-06-10T14:57:55;35.80;33.50
75321;DHT22;68337;52.196;5.660;2023-06-10T15:00:22;35.50;33.90
75321;DHT22;68337;52.196;5.660;2023-06-10T15:02:50;35.60;33.30
75321;DHT22;68337;52.196;5.660;2023-06-10T15:05:16;35.40;33.60
75321;DHT22;68337;52.196;5.660;2023-06-10T15:07:43;35.20;32.80
75321;DHT22;68337;52.196;5.660;2023-06-10T15:10:09;34.80;33.60
75321;DHT22;68337;52.196;5.660;2023-06-10T15:12:36;35.20;33.50
75321;DHT22;68337;52.196;5.660;2023-06-10T15:15:02;35.30;33.00
75321;DHT22;68337;52.196;5.660;2023-06-10T15:17:28;34.90;34.00
75321;DHT22;68337;52.196;5.660;2023-06-10T15:19:54;34.60;33.90
75321;DHT22;68337;52.196;5.660;2023-06-10T15:22:20;34.30;34.70
75321;DHT22;68337;52.196;5.660;2023-06-10T15:24:46;34.30;34.60
75321;DHT22;68337;52.196;5.660;2023-06-10T15:27:12;34.10;34.10
75321;DHT22;68337;52.196;5.660;2023-06-10T15:29:37;34.10;34.90
75321;DHT22;68337;52.196;5.660;2023-06-10T15:32:03;33.90;34.40
75321;DHT22;68337;52.196;5.660;2023-06-10T15:34:29;34.00;35.30
75321;DHT22;68337;52.196;5.660;2023-06-10T15:36:55;34.00;34.80
75321;DHT22;68337;52.196;5.660;2023-06-10T15:39:21;33.90;34.80
75321;DHT22;68337;52.196;5.660;2023-06-10T15:41:46;34.10;34.70
75321;DHT22;68337;52.196;5.660;2023-06-10T15:44:12;33.70;34.40
75321;DHT22;68337;52.196;5.660;2023-06-10T15:46:38;33.30;35.10
75321;DHT22;68337;52.196;5.660;2023-06-10T15:49:04;33.40;34.80